sensor_id;sensor_type;location;lat;lon;timestamp;P1;durP1;ratioP1;P2;durP2;ratioP2
4903;SDS011;2467;48.142;11.616;2022-11-15T00:00:17;5.78;;;5.28;;
4903;SDS011;2467;48.142;11.616;2022-11-15T00:00:50;5.10;;;4.70;;
4903;SDS011;2467;48.142;11.616;2022-11-15T00:01:26;6.47;;;5.05;;
4903;SDS011;2467;48.142;11.616;2022-11-15T00:01:58;4.38;;;4.07;;
4903;SDS011;2467;48.142;11.616;2022-11-15T00:02:30;5.05;;;4.65;;
4903;SDS011;2467;48.142;11.616;2022-11-15T00:03:02;4.72;;;4.32;;
4903;SDS011;2467;48.142;11.616;2022-11-15T00:03:35;5.25;;;4.75;;
4903;SDS011;2467;48.142;11.616;2022-11-15T00:04:07;6.07;;;5.57;;
4903;SDS011;2467;48.142;11.616;2022-11-15T00:04:39;4.80;;;4.40;;
4903;SDS011;2467;48.142;11.616;2022-11-15T00:05:12;5.25;;;4.75;;
4903;SDS011;2467;48.142;11.616;2022-11-15T00:05:43;5.10;;;4.68;;
4903;SDS011;2467;48.142;11.616;2022-11-15T00:06:17;5.40;;;4.90;;
4903;SDS011;2467;48.142;11.616;2022-11-15T00:06:49;5.20;;;4.80;;
4903;SDS011;2467;48.142;11.616;2022-11-15T00:07:21;6.07;;;5.47;;
4903;SDS011;2467;48.142;11.616;2022-11-15T00:08:14;5.55;;;5.00;;
4903;SDS011;2467;48.142;11.616;2022-11-15T00:08:46;4.85;;;4.30;;
4903;SDS011;2467;48.142;11.616;2022-11-15T00:09:19;4.55;;;4.15;;
4903;SDS011;2467;48.142;11.616;2022-11-15T00:09:51;5.13;;;4.63;;
4903;SDS011;2467;48.142;11.616;2022-11-15T00:10:22;5.07;;;4.55;;
4903;SDS011;2467;48.142;11.616;2022-11-15T00:10:55;5.28;;;4.78;;
4903;SDS011;2467;48.142;11.616;2022-11-15T00:11:27;6.80;;;5.18;;
4903;SDS011;2467;48.142;11.616;2022-11-15T00:12:00;5.50;;;4.90;;
4903;SDS011;2467;48.142;11.616;2022-11-15T00:12:32;5.50;;;5.00;;
4903;SDS011;2467;48.142;11.616;2022-11-15T00:13:05;5.03;;;4.53;;
4903;SDS011;2467;48.142;11.616;2022-11-15T00:13:37;5.72;;;5.22;;
4903;SDS011;2467;48.142;11.616;2022-11-15T00:14:11;6.40;;;5.63;;
4903;SDS011;2467;48.142;11.616;2022-11-15T00:14:43;5.32;;;4.25;;
4903;SDS011;2467;48.142;11.616;2022-11-15T00:15:15;5.10;;;4.60;;
4903;SDS011;2467;48.142;11.616;2022-11-15T00:15:48;5.78;;;5.18;;
4903;SDS011;2467;48.142;11.616;2022-11-15T00:16:20;5.65;;;5.15;;
4903;SDS011;2467;48.142;11.616;2022-11-15T00:16:52;4.70;;;4.30;;
4903;SDS011;2467;48.142;11.616;2022-11-15T00:17:24;4.45;;;4.05;;
4903;SDS011;2467;48.142;11.616;2022-11-15T00:17:56;6.03;;;5.43;;
4903;SDS011;2467;48.142;11.616;2022-11-15T00:18:28;6.13;;;4.47;;
4903;SDS011;2467;48.142;11.616;2022-11-15T00:19:01;4.78;;;4.38;;
4903;SDS011;2467;48.142;11.616;2022-11-15T00:19:34;6.13;;;5.50;;
4903;SDS011;2467;48.142;11.616;2022-11-15T00:20:07;5.75;;;4.85;;
4903;SDS011;2467;48.142;11.616;2022-11-15T00:20:39;5.45;;;4.95;;
4903;SDS011;2467;48.142;11.616;2022-11-15T00:21:12;4.78;;;4.35;;
4903;SDS011;2467;48.142;11.616;2022-11-15T00:21:46;5.07;;;4.68;;
4903;SDS011;2467;48.142;11.616;2022-11-15T00:22:17;7.03;;;5.13;;
4903;SDS011;2467;48.142;11.616;2022-11-15T00:22:50;5.43;;;4.93;;
4903;SDS011;2467;48.142;11.616;2022-11-15T00:23:22;4.50;;;4.10;;
4903;SDS011;2467;48.142;11.616;2022-11-15T00:23:54;4.68;;;4.28;;
4903;SDS011;2467;48.142;11.616;2022-11-15T00:24:27;5.18;;;4.68;;
4903;SDS011;2467;48.142;11.616;2022-11-15T00:24:59;4.60;;;4.20;;
4903;SDS011;2467;48.142;11.616;2022-11-15T00:25:31;6.90;;;5.60;;
4903;SDS011;2467;48.142;11.616;2022-11-15T00:26:04;5.70;;;5.13;;
4903;SDS011;2467;48.142;11.616;2022-11-15T00:26:36;5.13;;;4.72;;
4903;SDS011;2467;48.142;11.616;2022-11-15T00:27:08;7.05;;;4.70;;
4903;SDS011;2467;48.142;11.616;2022-11-15T00:27:40;5.05;;;4.55;;
4903;SDS011;2467;48.142;11.616;2022-11-15T00:28:13;5.35;;;4.85;;
4903;SDS011;2467;48.142;11.616;2022-11-15T00:28:45;4.80;;;4.30;;
4903;SDS011;2467;48.142;11.616;2022-11-15T00:29:19;4.55;;;4.18;;
4903;SDS011;2467;48.142;11.616;2022-11-15T00:29:51;4.97;;;4.43;;
4903;SDS011;2467;48.142;11.616;2022-11-15T00:30:22;4.90;;;4.45;;
4903;SDS011;2467;48.142;11.616;2022-11-15T00:30:59;6.53;;;5.20;;
4903;SDS011;2467;48.142;11.616;2022-11-15T00:31:32;6.40;;;5.00;;
4903;SDS011;2467;48.142;11.616;2022-11-15T00:32:04;4.95;;;4.50;;
4903;SDS011;2467;48.142;11.616;2022-11-15T00:32:36;5.03;;;4.57;;
4903;SDS011;2467;48.142;11.616;2022-11-15T00:33:08;5.50;;;5.00;;
4903;SDS011;2467;48.142;11.616;2022-11-15T00:33:42;4.85;;;4.45;;
4903;SDS011;2467;48.142;11.616;2022-11-15T00:34:15;5.75;;;4.63;;
4903;SDS011;2467;48.142;11.616;2022-11-15T00:34:47;5.15;;;4.65;;
4903;SDS011;2467;48.142;11.616;2022-11-15T00:35:20;4.88;;;4.47;;
4903;SDS011;2467;48.142;11.616;2022-11-15T00:35:52;5.07;;;4.68;;
4903;SDS011;2467;48.142;11.616;2022-11-15T00:36:24;5.53;;;4.60;;
4903;SDS011;2467;48.142;11.616;2022-11-15T00:36:57;5.13;;;4.68;;
4903;SDS011;2467;48.142;11.616;2022-11-15T00:37:28;4.13;;;3.83;;
4903;SDS011;2467;48.142;11.616;2022-11-15T00:38:00;5.30;;;4.80;;
4903;SDS011;2467;48.142;11.616;2022-11-15T00:38:33;4.65;;;4.22;;
4903;SDS011;2467;48.142;11.616;2022-11-15T00:39:07;4.75;;;4.07;;
4903;SDS011;2467;48.142;11.616;2022-11-15T00:39:39;4.45;;;4.07;;
4903;SDS011;2467;48.142;11.616;2022-11-15T00:40:11;5.13;;;4.78;;
4903;SDS011;2467;48.142;11.616;2022-11-15T00:40:44;4.95;;;4.55;;
4903;SDS011;2467;48.142;11.616;2022-11-15T00:41:16;5.18;;;4.78;;
4903;SDS011;2467;48.142;11.616;2022-11-15T00:41:49;5.10;;;4.70;;
4903;SDS011;2467;48.142;11.616;2022-11-15T00:42:21;4.25;;;3.85;;
4903;SDS011;2467;48.142;11.616;2022-11-15T00:42:53;5.60;;;5.10;;
4903;SDS011;2467;48.142;11.616;2022-11-15T00:43:26;5.28;;;4.57;;
4903;SDS011;2467;48.142;11.616;2022-11-15T00:43:58;4.18;;;3.80;;
4903;SDS011;2467;48.142;11.616;2022-11-15T00:44:31;3.95;;;3.60;;
4903;SDS011;2467;48.142;11.616;2022-11-15T00:45:04;4.93;;;4.40;;
4903;SDS011;2467;48.142;11.616;2022-11-15T00:45:36;5.25;;;4.78;;
4903;SDS011;2467;48.142;11.616;2022-11-15T00:46:08;5.20;;;4.80;;
4903;SDS011;2467;48.142;11.616;2022-11-15T00:46:40;7.78;;;4.80;;
4903;SDS011;2467;48.142;11.616;2022-11-15T00:47:13;4.38;;;3.88;;
4903;SDS011;2467;48.142;11.616;2022-11-15T00:47:45;4.60;;;4.15;;
4903;SDS011;2467;48.142;11.616;2022-11-15T00:48:17;4.93;;;4.53;;
4903;SDS011;2467;48.142;11.616;2022-11-15T00:48:50;5.63;;;4.40;;
4903;SDS011;2467;48.142;11.616;2022-11-15T00:49:22;6.03;;;5.40;;
4903;SDS011;2467;48.142;11.616;2022-11-15T00:49:54;8.70;;;7.80;;
4903;SDS011;2467;48.142;11.616;2022-11-15T00:50:26;7.15;;;6.45;;
4903;SDS011;2467;48.142;11.616;2022-11-15T00:50:58;8.80;;;8.00;;
4903;SDS011;2467;48.142;11.616;2022-11-15T00:51:30;8.70;;;7.72;;
4903;SDS011;2467;48.142;11.616;2022-11-15T00:52:03;7.25;;;6.50;;
4903;SDS011;2467;48.142;11.616;2022-11-15T00:52:35;14.05;;;8.20;;
4903;SDS011;2467;48.142;11.616;2022-11-15T00:53:06;7.20;;;6.40;;
4903;SDS011;2467;48.142;11.616;2022-11-15T00:53:39;7.70;;;6.55;;
4903;SDS011;2467;48.142;11.616;2022-11-15T00:54:11;7.82;;;7.03;;
4903;SDS011;2467;48.142;11.616;2022-11-15T00:54:43;10.25;;;8.55;;
4903;SDS011;2467;48.142;11.616;2022-11-15T00:55:16;9.07;;;7.50;;
4903;SDS011;2467;48.142;11.616;2022-11-15T00:55:48;9.35;;;8.10;;
4903;SDS011;2467;48.142;11.616;2022-11-15T00:56:20;6.82;;;6.15;;
4903;SDS011;2467;48.142;11.616;2022-11-15T00:56:53;9.27;;;7.30;;
4903;SDS011;2467;48.142;11.616;2022-11-15T00:57:25;6.40;;;5.55;;
4903;SDS011;2467;48.142;11.616;2022-11-15T00:57:57;7.97;;;7.18;;
4903;SDS011;2467;48.142;11.616;2022-11-15T00:58:29;7.05;;;6.35;;
4903;SDS011;2467;48.142;11.616;2022-11-15T00:59:01;8.68;;;6.90;;
4903;SDS011;2467;48.142;11.616;2022-11-15T00:59:35;7.00;;;6.28;;
4903;SDS011;2467;48.142;11.616;2022-11-15T01:00:07;5.88;;;5.30;;
4903;SDS011;2467;48.142;11.616;2022-11-15T01:00:41;5.93;;;5.32;;
4903;SDS011;2467;48.142;11.616;2022-11-15T01:01:13;5.90;;;5.38;;
4903;SDS011;2467;48.142;11.616;2022-11-15T01:01:46;4.97;;;4.43;;
4903;SDS011;2467;48.142;11.616;2022-11-15T01:02:18;4.50;;;4.10;;
4903;SDS011;2467;48.142;11.616;2022-11-15T01:02:50;5.05;;;4.55;;
4903;SDS011;2467;48.142;11.616;2022-11-15T01:03:22;5.25;;;4.80;;
4903;SDS011;2467;48.142;11.616;2022-11-15T01:03:55;5.55;;;4.85;;
4903;SDS011;2467;48.142;11.616;2022-11-15T01:04:31;4.93;;;4.53;;
4903;SDS011;2467;48.142;11.616;2022-11-15T01:05:03;5.22;;;4.57;;
4903;SDS011;2467;48.142;11.616;2022-11-15T01:05:37;6.05;;;4.72;;
4903;SDS011;2467;48.142;11.616;2022-11-15T01:06:09;5.60;;;5.10;;
4903;SDS011;2467;48.142;11.616;2022-11-15T01:06:42;5.60;;;4.90;;
4903;SDS011;2467;48.142;11.616;2022-11-15T01:07:15;5.35;;;4.88;;
4903;SDS011;2467;48.142;11.616;2022-11-15T01:07:49;5.18;;;4.68;;
4903;SDS011;2467;48.142;11.616;2022-11-15T01:08:22;5.30;;;4.80;;
4903;SDS011;2467;48.142;11.616;2022-11-15T01:08:56;6.40;;;5.80;;
4903;SDS011;2467;48.142;11.616;2022-11-15T01:09:27;5.70;;;4.65;;
4903;SDS011;2467;48.142;11.616;2022-11-15T01:09:59;5.60;;;4.78;;
4903;SDS011;2467;48.142;11.616;2022-11-15T01:10:32;5.95;;;5.43;;
4903;SDS011;2467;48.142;11.616;2022-11-15T01:11:05;5.85;;;5.35;;
4903;SDS011;2467;48.142;11.616;2022-11-15T01:11:38;5.55;;;4.97;;
4903;SDS011;2467;48.142;11.616;2022-11-15T01:12:11;4.75;;;4.35;;
4903;SDS011;2467;48.142;11.616;2022-11-15T01:12:43;4.65;;;4.25;;
4903;SDS011;2467;48.142;11.616;2022-11-15T01:13:15;4.93;;;3.97;;
4903;SDS011;2467;48.142;11.616;2022-11-15T01:13:48;4.70;;;4.40;;
4903;SDS011;2467;48.142;11.616;2022-11-15T01:14:20;4.47;;;4.07;;
4903;SDS011;2467;48.142;11.616;2022-11-15T01:14:57;4.90;;;4.40;;
4903;SDS011;2467;48.142;11.616;2022-11-15T01:15:30;5.65;;;5.15;;
4903;SDS011;2467;48.142;11.616;2022-11-15T01:16:05;5.82;;;5.32;;
4903;SDS011;2467;48.142;11.616;2022-11-15T01:16:38;5.10;;;4.60;;
4903;SDS011;2467;48.142;11.616;2022-11-15T01:17:11;5.00;;;4.55;;
4903;SDS011;2467;48.142;11.616;2022-11-15T01:17:43;5.80;;;5.20;;
4903;SDS011;2467;48.142;11.616;2022-11-15T01:18:15;5.55;;;4.75;;
4903;SDS011;2467;48.142;11.616;2022-11-15T01:18:47;4.80;;;4.40;;
4903;SDS011;2467;48.142;11.616;2022-11-15T01:19:19;5.93;;;5.30;;
4903;SDS011;2467;48.142;11.616;2022-11-15T01:19:51;6.00;;;4.05;;
4903;SDS011;2467;48.142;11.616;2022-11-15T01:20:23;5.40;;;4.93;;
4903;SDS011;2467;48.142;11.616;2022-11-15T01:20:56;5.47;;;4.43;;
4903;SDS011;2467;48.142;11.616;2022-11-15T01:21:28;5.43;;;4.93;;
4903;SDS011;2467;48.142;11.616;2022-11-15T01:22:00;5.57;;;5.07;;
4903;SDS011;2467;48.142;11.616;2022-11-15T01:22:33;5.70;;;4.95;;
4903;SDS011;2467;48.142;11.616;2022-11-15T01:23:05;6.72;;;5.30;;
4903;SDS011;2467;48.142;11.616;2022-11-15T01:23:37;6.80;;;5.68;;
4903;SDS011;2467;48.142;11.616;2022-11-15T01:24:09;5.90;;;5.30;;
4903;SDS011;2467;48.142;11.616;2022-11-15T01:24:44;5.45;;;4.70;;
4903;SDS011;2467;48.142;11.616;2022-11-15T01:25:16;5.55;;;5.05;;
4903;SDS011;2467;48.142;11.616;2022-11-15T01:25:48;5.32;;;4.82;;
4903;SDS011;2467;48.142;11.616;2022-11-15T01:26:21;6.10;;;4.90;;
4903;SDS011;2467;48.142;11.616;2022-11-15T01:26:54;5.00;;;4.60;;
4903;SDS011;2467;48.142;11.616;2022-11-15T01:27:26;6.82;;;5.20;;
4903;SDS011;2467;48.142;11.616;2022-11-15T01:27:58;5.75;;;4.90;;
4903;SDS011;2467;48.142;11.616;2022-11-15T01:28:30;5.82;;;5.25;;
4903;SDS011;2467;48.142;11.616;2022-11-15T01:29:03;4.95;;;4.45;;
4903;SDS011;2467;48.142;11.616;2022-11-15T01:29:36;5.13;;;4.63;;
4903;SDS011;2467;48.142;11.616;2022-11-15T01:30:09;5.50;;;5.00;;
4903;SDS011;2467;48.142;11.616;2022-11-15T01:30:42;5.15;;;4.75;;
4903;SDS011;2467;48.142;11.616;2022-11-15T01:31:16;5.50;;;5.00;;
4903;SDS011;2467;48.142;11.616;2022-11-15T01:31:49;4.60;;;4.20;;
4903;SDS011;2467;48.142;11.616;2022-11-15T01:32:24;5.00;;;4.60;;
4903;SDS011;2467;48.142;11.616;2022-11-15T01:32:56;4.63;;;4.22;;
4903;SDS011;2467;48.142;11.616;2022-11-15T01:33:28;5.97;;;5.28;;
4903;SDS011;2467;48.142;11.616;2022-11-15T01:34:01;6.95;;;4.97;;
4903;SDS011;2467;48.142;11.616;2022-11-15T01:34:33;5.55;;;5.05;;
4903;SDS011;2467;48.142;11.616;2022-11-15T01:35:05;5.38;;;4.95;;
4903;SDS011;2467;48.142;11.616;2022-11-15T01:35:38;4.22;;;3.88;;
4903;SDS011;2467;48.142;11.616;2022-11-15T01:36:12;6.40;;;5.07;;
4903;SDS011;2467;48.142;11.616;2022-11-15T01:36:45;6.03;;;4.63;;
4903;SDS011;2467;48.142;11.616;2022-11-15T01:37:18;5.18;;;4.68;;
4903;SDS011;2467;48.142;11.616;2022-11-15T01:37:50;4.38;;;4.00;;
4903;SDS011;2467;48.142;11.616;2022-11-15T01:38:22;5.90;;;5.00;;
4903;SDS011;2467;48.142;11.616;2022-11-15T01:38:55;5.40;;;4.90;;
4903;SDS011;2467;48.142;11.616;2022-11-15T01:39:28;4.95;;;4.45;;
4903;SDS011;2467;48.142;11.616;2022-11-15T01:40:00;4.95;;;4.45;;
4903;SDS011;2467;48.142;11.616;2022-11-15T01:40:34;5.78;;;5.05;;
4903;SDS011;2467;48.142;11.616;2022-11-15T01:41:06;5.53;;;3.95;;
4903;SDS011;2467;48.142;11.616;2022-11-15T01:41:44;4.82;;;4.32;;
4903;SDS011;2467;48.142;11.616;2022-11-15T01:42:17;5.20;;;4.70;;
4903;SDS011;2467;48.142;11.616;2022-11-15T01:42:49;5.00;;;4.38;;
4903;SDS011;2467;48.142;11.616;2022-11-15T01:43:22;7.03;;;5.70;;
4903;SDS011;2467;48.142;11.616;2022-11-15T01:43:55;6.15;;;5.60;;
4903;SDS011;2467;48.142;11.616;2022-11-15T01:44:43;6.22;;;4.63;;
4903;SDS011;2467;48.142;11.616;2022-11-15T01:45:19;5.00;;;4.55;;
4903;SDS011;2467;48.142;11.616;2022-11-15T01:45:51;6.25;;;4.95;;
4903;SDS011;2467;48.142;11.616;2022-11-15T01:46:29;4.90;;;4.50;;
4903;SDS011;2467;48.142;11.616;2022-11-15T01:47:03;5.35;;;4.95;;
4903;SDS011;2467;48.142;11.616;2022-11-15T01:47:39;5.35;;;4.85;;
4903;SDS011;2467;48.142;11.616;2022-11-15T01:48:14;4.72;;;4.32;;
4903;SDS011;2467;48.142;11.616;2022-11-15T01:48:46;5.25;;;4.72;;
4903;SDS011;2467;48.142;11.616;2022-11-15T01:49:19;5.32;;;4.85;;
4903;SDS011;2467;48.142;11.616;2022-11-15T01:49:55;5.35;;;4.85;;
4903;SDS011;2467;48.142;11.616;2022-11-15T01:50:30;5.25;;;4.75;;
4903;SDS011;2467;48.142;11.616;2022-11-15T01:51:04;5.10;;;4.70;;
4903;SDS011;2467;48.142;11.616;2022-11-15T01:51:40;4.95;;;4.55;;
4903;SDS011;2467;48.142;11.616;2022-11-15T01:52:12;4.90;;;4.50;;
4903;SDS011;2467;48.142;11.616;2022-11-15T01:52:48;4.85;;;4.45;;
4903;SDS011;2467;48.142;11.616;2022-11-15T01:53:21;4.93;;;4.47;;
4903;SDS011;2467;48.142;11.616;2022-11-15T01:53:56;6.07;;;5.50;;
4903;SDS011;2467;48.142;11.616;2022-11-15T01:54:32;4.95;;;4.55;;
4903;SDS011;2467;48.142;11.616;2022-11-15T01:55:07;4.60;;;4.20;;
4903;SDS011;2467;48.142;11.616;2022-11-15T01:55:42;5.32;;;4.82;;
4903;SDS011;2467;48.142;11.616;2022-11-15T01:56:15;6.78;;;5.00;;
4903;SDS011;2467;48.142;11.616;2022-11-15T01:56:55;5.00;;;4.50;;
4903;SDS011;2467;48.142;11.616;2022-11-15T01:57:32;4.15;;;3.85;;
4903;SDS011;2467;48.142;11.616;2022-11-15T01:58:04;5.45;;;4.60;;
4903;SDS011;2467;48.142;11.616;2022-11-15T01:58:39;5.63;;;5.13;;
4903;SDS011;2467;48.142;11.616;2022-11-15T01:59:13;5.40;;;4.90;;
4903;SDS011;2467;48.142;11.616;2022-11-15T01:59:45;5.88;;;5.38;;
4903;SDS011;2467;48.142;11.616;2022-11-15T02:00:20;4.43;;;4.03;;
4903;SDS011;2467;48.142;11.616;2022-11-15T02:00:52;5.50;;;5.13;;
4903;SDS011;2467;48.142;11.616;2022-11-15T02:01:24;5.82;;;4.78;;
4903;SDS011;2467;48.142;11.616;2022-11-15T02:01:58;4.50;;;4.10;;
4903;SDS011;2467;48.142;11.616;2022-11-15T02:02:31;4.53;;;4.13;;
4903;SDS011;2467;48.142;11.616;2022-11-15T02:03:03;4.00;;;3.70;;
4903;SDS011;2467;48.142;11.616;2022-11-15T02:03:38;4.68;;;4.35;;
4903;SDS011;2467;48.142;11.616;2022-11-15T02:04:16;4.63;;;4.28;;
4903;SDS011;2467;48.142;11.616;2022-11-15T02:04:51;8.68;;;4.63;;
4903;SDS011;2467;48.142;11.616;2022-11-15T02:05:24;4.97;;;4.47;;
4903;SDS011;2467;48.142;11.616;2022-11-15T02:05:56;5.07;;;4.13;;
4903;SDS011;2467;48.142;11.616;2022-11-15T02:06:29;5.53;;;4.75;;
4903;SDS011;2467;48.142;11.616;2022-11-15T02:07:02;4.97;;;4.50;;
4903;SDS011;2467;48.142;11.616;2022-11-15T02:07:36;4.85;;;4.45;;
4903;SDS011;2467;48.142;11.616;2022-11-15T02:08:10;4.90;;;4.50;;
4903;SDS011;2467;48.142;11.616;2022-11-15T02:08:50;4.25;;;3.95;;
4903;SDS011;2467;48.142;11.616;2022-11-15T02:09:23;5.93;;;5.40;;
4903;SDS011;2467;48.142;11.616;2022-11-15T02:09:56;4.00;;;3.70;;
4903;SDS011;2467;48.142;11.616;2022-11-15T02:10:32;4.63;;;4.25;;
4903;SDS011;2467;48.142;11.616;2022-11-15T02:11:04;4.53;;;4.13;;
4903;SDS011;2467;48.142;11.616;2022-11-15T02:11:39;5.35;;;4.93;;
4903;SDS011;2467;48.142;11.616;2022-11-15T02:12:13;4.38;;;3.97;;
4903;SDS011;2467;48.142;11.616;2022-11-15T02:12:46;6.30;;;5.03;;
4903;SDS011;2467;48.142;11.616;2022-11-15T02:13:20;4.95;;;4.55;;
4903;SDS011;2467;48.142;11.616;2022-11-15T02:13:52;4.97;;;4.57;;
4903;SDS011;2467;48.142;11.616;2022-11-15T02:14:24;3.60;;;3.30;;
4903;SDS011;2467;48.142;11.616;2022-11-15T02:14:59;4.30;;;4.00;;
4903;SDS011;2467;48.142;11.616;2022-11-15T02:15:35;4.05;;;3.75;;
4903;SDS011;2467;48.142;11.616;2022-11-15T02:16:22;4.07;;;3.67;;
4903;SDS011;2467;48.142;11.616;2022-11-15T02:17:02;5.05;;;4.55;;
4903;SDS011;2467;48.142;11.616;2022-11-15T02:17:54;4.88;;;4.47;;
4903;SDS011;2467;48.142;11.616;2022-11-15T02:18:40;4.85;;;4.47;;
4903;SDS011;2467;48.142;11.616;2022-11-15T02:19:21;4.30;;;4.00;;
4903;SDS011;2467;48.142;11.616;2022-11-15T02:20:21;3.95;;;3.65;;
4903;SDS011;2467;48.142;11.616;2022-11-15T02:21:21;4.40;;;3.70;;
4903;SDS011;2467;48.142;11.616;2022-11-15T02:22:00;4.97;;;4.40;;
4903;SDS011;2467;48.142;11.616;2022-11-15T02:22:45;4.53;;;4.07;;
4903;SDS011;2467;48.142;11.616;2022-11-15T02:25:01;3.80;;;3.50;;
4903;SDS011;2467;48.142;11.616;2022-11-15T02:25:46;7.32;;;4.60;;
4903;SDS011;2467;48.142;11.616;2022-11-15T02:26:39;4.85;;;4.45;;
4903;SDS011;2467;48.142;11.616;2022-11-15T02:28:06;3.90;;;3.35;;
4903;SDS011;2467;48.142;11.616;2022-11-15T02:28:55;4.65;;;4.20;;
4903;SDS011;2467;48.142;11.616;2022-11-15T02:29:36;3.85;;;3.50;;
4903;SDS011;2467;48.142;11.616;2022-11-15T02:30:29;4.72;;;3.92;;
4903;SDS011;2467;48.142;11.616;2022-11-15T02:31:11;4.13;;;3.70;;
4903;SDS011;2467;48.142;11.616;2022-11-15T02:31:53;4.60;;;3.90;;
4903;SDS011;2467;48.142;11.616;2022-11-15T02:32:32;4.30;;;3.90;;
4903;SDS011;2467;48.142;11.616;2022-11-15T02:33:14;4.25;;;3.85;;
4903;SDS011;2467;48.142;11.616;2022-11-15T02:33:59;5.05;;;4.65;;
4903;SDS011;2467;48.142;11.616;2022-11-15T02:34:42;5.13;;;4.63;;
4903;SDS011;2467;48.142;11.616;2022-11-15T02:35:29;4.47;;;3.92;;
4903;SDS011;2467;48.142;11.616;2022-11-15T02:36:10;4.20;;;3.80;;
4903;SDS011;2467;48.142;11.616;2022-11-15T02:36:48;4.18;;;3.80;;
4903;SDS011;2467;48.142;11.616;2022-11-15T02:37:34;4.40;;;4.00;;
4903;SDS011;2467;48.142;11.616;2022-11-15T02:38:12;6.38;;;4.60;;
4903;SDS011;2467;48.142;11.616;2022-11-15T02:38:54;4.35;;;3.95;;
4903;SDS011;2467;48.142;11.616;2022-11-15T02:39:33;4.70;;;4.30;;
4903;SDS011;2467;48.142;11.616;2022-11-15T02:40:11;5.63;;;5.00;;
4903;SDS011;2467;48.142;11.616;2022-11-15T02:40:51;3.97;;;3.67;;
4903;SDS011;2467;48.142;11.616;2022-11-15T02:41:28;4.63;;;4.22;;
4903;SDS011;2467;48.142;11.616;2022-11-15T02:42:07;4.40;;;3.97;;
4903;SDS011;2467;48.142;11.616;2022-11-15T02:43:00;4.15;;;3.85;;
4903;SDS011;2467;48.142;11.616;2022-11-15T02:43:57;4.97;;;3.75;;
4903;SDS011;2467;48.142;11.616;2022-11-15T02:44:33;3.70;;;3.40;;
4903;SDS011;2467;48.142;11.616;2022-11-15T02:45:10;4.53;;;4.13;;
4903;SDS011;2467;48.142;11.616;2022-11-15T02:45:47;8.43;;;7.45;;
4903;SDS011;2467;48.142;11.616;2022-11-15T02:46:24;24.05;;;19.20;;
4903;SDS011;2467;48.142;11.616;2022-11-15T02:47:16;14.60;;;11.45;;
4903;SDS011;2467;48.142;11.616;2022-11-15T02:47:50;10.18;;;8.95;;
4903;SDS011;2467;48.142;11.616;2022-11-15T02:48:26;7.55;;;5.82;;
4903;SDS011;2467;48.142;11.616;2022-11-15T02:48:59;9.15;;;7.60;;
4903;SDS011;2467;48.142;11.616;2022-11-15T02:49:32;7.43;;;6.05;;
4903;SDS011;2467;48.142;11.616;2022-11-15T02:50:07;6.57;;;4.45;;
4903;SDS011;2467;48.142;11.616;2022-11-15T02:50:41;4.88;;;4.47;;
4903;SDS011;2467;48.142;11.616;2022-11-15T02:51:14;17.27;;;15.57;;
4903;SDS011;2467;48.142;11.616;2022-11-15T02:51:48;12.40;;;9.50;;
4903;SDS011;2467;48.142;11.616;2022-11-15T02:52:22;24.90;;;21.73;;
4903;SDS011;2467;48.142;11.616;2022-11-15T02:52:56;36.70;;;28.25;;
4903;SDS011;2467;48.142;11.616;2022-11-15T02:53:29;27.77;;;22.00;;
4903;SDS011;2467;48.142;11.616;2022-11-15T02:54:01;20.23;;;15.80;;
4903;SDS011;2467;48.142;11.616;2022-11-15T02:54:33;12.98;;;10.40;;
4903;SDS011;2467;48.142;11.616;2022-11-15T02:55:57;7.20;;;5.50;;
4903;SDS011;2467;48.142;11.616;2022-11-15T02:56:29;6.05;;;5.10;;
4903;SDS011;2467;48.142;11.616;2022-11-15T02:57:03;5.15;;;4.65;;
4903;SDS011;2467;48.142;11.616;2022-11-15T02:57:39;4.35;;;4.05;;
4903;SDS011;2467;48.142;11.616;2022-11-15T02:58:25;4.25;;;3.85;;
4903;SDS011;2467;48.142;11.616;2022-11-15T02:59:13;4.97;;;4.35;;
4903;SDS011;2467;48.142;11.616;2022-11-15T03:00:07;4.22;;;3.92;;
4903;SDS011;2467;48.142;11.616;2022-11-15T03:00:41;4.10;;;3.80;;
4903;SDS011;2467;48.142;11.616;2022-11-15T03:01:26;4.50;;;4.10;;
4903;SDS011;2467;48.142;11.616;2022-11-15T03:02:09;4.32;;;3.92;;
4903;SDS011;2467;48.142;11.616;2022-11-15T03:03:02;4.20;;;3.80;;
4903;SDS011;2467;48.142;11.616;2022-11-15T03:03:51;4.63;;;4.10;;
4903;SDS011;2467;48.142;11.616;2022-11-15T03:04:34;3.97;;;3.67;;
4903;SDS011;2467;48.142;11.616;2022-11-15T03:05:15;3.33;;;3.03;;
4903;SDS011;2467;48.142;11.616;2022-11-15T03:05:53;4.28;;;3.97;;
4903;SDS011;2467;48.142;11.616;2022-11-15T03:06:35;4.40;;;4.10;;
4903;SDS011;2467;48.142;11.616;2022-11-15T03:07:15;4.30;;;3.90;;
4903;SDS011;2467;48.142;11.616;2022-11-15T03:07:54;4.80;;;4.40;;
4903;SDS011;2467;48.142;11.616;2022-11-15T03:08:35;3.92;;;3.63;;
4903;SDS011;2467;48.142;11.616;2022-11-15T03:09:18;3.95;;;3.65;;
4903;SDS011;2467;48.142;11.616;2022-11-15T03:10:01;4.25;;;3.95;;
4903;SDS011;2467;48.142;11.616;2022-11-15T03:10:40;5.13;;;4.63;;
4903;SDS011;2467;48.142;11.616;2022-11-15T03:11:18;4.38;;;3.97;;
4903;SDS011;2467;48.142;11.616;2022-11-15T03:11:58;4.15;;;3.85;;
4903;SDS011;2467;48.142;11.616;2022-11-15T03:12:36;4.30;;;3.90;;
4903;SDS011;2467;48.142;11.616;2022-11-15T03:13:19;3.95;;;3.65;;
4903;SDS011;2467;48.142;11.616;2022-11-15T03:13:57;4.28;;;3.97;;
4903;SDS011;2467;48.142;11.616;2022-11-15T03:14:35;3.80;;;3.47;;
4903;SDS011;2467;48.142;11.616;2022-11-15T03:15:09;5.25;;;4.72;;
4903;SDS011;2467;48.142;11.616;2022-11-15T03:15:51;4.82;;;3.53;;
4903;SDS011;2467;48.142;11.616;2022-11-15T03:16:34;3.40;;;3.10;;
4903;SDS011;2467;48.142;11.616;2022-11-15T03:17:12;4.63;;;4.22;;
4903;SDS011;2467;48.142;11.616;2022-11-15T03:17:51;4.22;;;3.83;;
4903;SDS011;2467;48.142;11.616;2022-11-15T03:18:30;3.85;;;3.55;;
4903;SDS011;2467;48.142;11.616;2022-11-15T03:19:05;3.55;;;3.25;;
4903;SDS011;2467;48.142;11.616;2022-11-15T03:19:44;6.82;;;3.83;;
4903;SDS011;2467;48.142;11.616;2022-11-15T03:20:19;4.63;;;4.00;;
4903;SDS011;2467;48.142;11.616;2022-11-15T03:20:51;4.32;;;3.92;;
4903;SDS011;2467;48.142;11.616;2022-11-15T03:21:25;4.13;;;3.72;;
4903;SDS011;2467;48.142;11.616;2022-11-15T03:22:00;4.60;;;4.20;;
4903;SDS011;2467;48.142;11.616;2022-11-15T03:22:36;4.13;;;3.72;;
4903;SDS011;2467;48.142;11.616;2022-11-15T03:23:11;4.15;;;3.83;;
4903;SDS011;2467;48.142;11.616;2022-11-15T03:23:45;4.35;;;3.95;;
4903;SDS011;2467;48.142;11.616;2022-11-15T03:24:19;6.15;;;4.18;;
4903;SDS011;2467;48.142;11.616;2022-11-15T03:24:58;4.30;;;3.90;;
4903;SDS011;2467;48.142;11.616;2022-11-15T03:25:36;4.93;;;4.43;;
4903;SDS011;2467;48.142;11.616;2022-11-15T03:26:12;4.13;;;3.72;;
4903;SDS011;2467;48.142;11.616;2022-11-15T03:26:47;4.63;;;4.15;;
4903;SDS011;2467;48.142;11.616;2022-11-15T03:27:23;4.80;;;4.40;;
4903;SDS011;2467;48.142;11.616;2022-11-15T03:27:58;4.20;;;3.80;;
4903;SDS011;2467;48.142;11.616;2022-11-15T03:28:36;4.65;;;4.25;;
4903;SDS011;2467;48.142;11.616;2022-11-15T03:29:13;4.00;;;3.63;;
4903;SDS011;2467;48.142;11.616;2022-11-15T03:29:49;4.47;;;4.07;;
4903;SDS011;2467;48.142;11.616;2022-11-15T03:30:24;3.90;;;3.55;;
4903;SDS011;2467;48.142;11.616;2022-11-15T03:30:59;4.43;;;4.03;;
4903;SDS011;2467;48.142;11.616;2022-11-15T03:31:54;3.60;;;3.30;;
4903;SDS011;2467;48.142;11.616;2022-11-15T03:32:32;4.50;;;4.10;;
4903;SDS011;2467;48.142;11.616;2022-11-15T03:33:09;5.32;;;3.92;;
4903;SDS011;2467;48.142;11.616;2022-11-15T03:33:42;4.22;;;3.92;;
4903;SDS011;2467;48.142;11.616;2022-11-15T03:34:16;3.72;;;3.42;;
4903;SDS011;2467;48.142;11.616;2022-11-15T03:34:55;3.38;;;3.08;;
4903;SDS011;2467;48.142;11.616;2022-11-15T03:35:30;4.40;;;4.00;;
4903;SDS011;2467;48.142;11.616;2022-11-15T03:36:05;4.00;;;3.70;;
4903;SDS011;2467;48.142;11.616;2022-11-15T03:36:38;4.30;;;3.90;;
4903;SDS011;2467;48.142;11.616;2022-11-15T03:37:11;3.90;;;3.60;;
4903;SDS011;2467;48.142;11.616;2022-11-15T03:37:46;3.95;;;3.40;;
4903;SDS011;2467;48.142;11.616;2022-11-15T03:38:23;4.50;;;3.90;;
4903;SDS011;2467;48.142;11.616;2022-11-15T03:38:58;4.28;;;3.88;;